Moyers, Oklahoma
Current Conditions -  °F | °C
As of 5:55 PM on Friday 28 Nov 2014 (Local Time) from KHHW Reporting Station
Clear Clear  
Wind Chill: 63°   Ceiling: Unl
Heat Index: 63°   Visibility: 10mi
Dew Point: 49°   Wind: 10mph
Humidity: 59%   Direction: 190°S
Pressure: 30.01"   Gusts: NA
Location:  34.33°N, 95.65°W
Report Text: KHHW 282355Z AUTO 19009KT 10SM CLR 17/09 A3001 RMK AO2 T01730092 10204 20171
Loading
Personal Weather Stations






























Interactive Weather Map New forecast layout! Learn more

10-Day Weather Forecast

Advertisements
Track Severe Weather on mobile